Terminal Aerodrome Forecast
Issued by NWS Norman, OK

Home | Current Version | Previous Version | Text Only | Print | Product List | Glossary On
Versions: 1 2 3 4 5 6 7 8 9 10 11 12 13 14 15 16 17 18 19 20 21 22 23 24 25 26 27 28 29 30 31
375
FTUS44 KOUN 141733
TAFOKC
TAF
KOKC 141733Z 1418/1518 36011KT P6SM SCT025 BKN250
      TEMPO 1418/1420 BKN025
     FM150600 03007KT P6SM BKN100
     FM151400 33015KT P6SM SCT250=

USA.gov is the U.S. government's official web portal to all federal, state and local government web resources and services.